This is the latest recevied weather packets stored in our database for station/object KF4ERV-4. If no packets are shown the sender has not sent any weather packets the latest 10 day(s).
| Time | Temp. | Humidity | Pressure | Rain* | Wind** | Luminosity | Snow |
|---|---|---|---|---|---|---|---|
| 1777359992 | 16.11° C | 99% | 1010.9 hPa | 1.02 mm | - | - | - |
| 1777359882 | 16.11° C | 99% | 1010.9 hPa | 1.02 mm | - | - | - |
| 1777359702 | 16.11° C | 99% | 1010.2 hPa | 1.27 mm | - | - | - |
| 1777359574 | 16.11° C | 99% | 1010.2 hPa | 1.27 mm | - | - | - |
| 1777359462 | 16.11° C | 99% | 1010 hPa | 2.54 mm | - | - | - |
| 1777359413 | 16.11° C | 99% | 1010 hPa | 1.52 mm | - | - | - |
| 1777359369 | 16.11° C | 99% | 1010.5 hPa | 3.3 mm | - | - | - |
| 1777359277 | 16.11° C | 99% | 1010 hPa | 1.52 mm | - | - | - |
| 1777359122 | 16.11° C | 99% | 1010 hPa | 2.03 mm | - | - | - |
| 1777358980 | 16.11° C | 99% | 1010 hPa | 2.03 mm | - | - | - |
| 1777358832 | 16.11° C | 99% | 1010 hPa | 2.29 mm | - | - | - |
| 1777358673 | 16.11° C | 99% | 1010 hPa | 2.29 mm | - | - | - |
| 1777358541 | 16.11° C | 99% | 1010 hPa | 2.54 mm | - | - | - |
| 1777358375 | 16.11° C | 99% | 1010 hPa | 2.54 mm | - | - | - |
| 1777358251 | 16.11° C | 99% | 1010.5 hPa | 3.3 mm | - | - | - |
| 1777358079 | 16.11° C | 99% | 1010.5 hPa | 3.3 mm | - | - | - |
| 1777357962 | 16.11° C | 99% | 1010.6 hPa | 3.3 mm | - | - | - |
| 1777357820 | 16.11° C | 99% | 1012 hPa | 9.4 mm | - | - | - |
| 1777357781 | 16.11° C | 99% | 1010.6 hPa | 3.3 mm | - | - | - |
| 1777357672 | 16.11° C | 99% | 1011.1 hPa | 4.06 mm | - | - | - |
| 1777357598 | 16.11° C | 99% | 1012.3 hPa | 10.67 mm | - | - | - |
| 1777357475 | 16.11° C | 99% | 1011.1 hPa | 4.06 mm | - | - | - |
| 1777357385 | 16.11° C | 99% | 1011.9 hPa | 6.1 mm | - | - | - |
| 1777357176 | 16.11° C | 99% | 1011.9 hPa | 6.1 mm | - | - | - |
| 1777357091 | 16.11° C | 99% | 1012 hPa | 9.4 mm | - | - | - |
* Rain latest hour (hover to see other rain measurements)
** Current wind speed in m/s (hover to see current wind gust speed)